createdAt,value
2018-03-30T00:01:19.967Z,93.64
2018-03-30T00:03:49.400Z,93.66
2018-03-30T00:06:17.933Z,93.38
2018-03-30T00:08:48.426Z,93.13
2018-03-30T00:11:22.339Z,92.99
2018-03-30T00:13:54.012Z,93.07
2018-03-30T00:16:22.889Z,92.89
2018-03-30T00:19:15.479Z,92.87
2018-03-30T00:21:44.938Z,92.58
2018-03-30T00:24:26.185Z,93.08
2018-03-30T00:26:57.959Z,93.98
2018-03-30T00:29:26.784Z,94.25
2018-03-30T00:32:12.234Z,93.99
2018-03-30T00:34:40.898Z,93.75
2018-03-30T00:37:13.066Z,93.67
2018-03-30T00:39:41.594Z,93.77
2018-03-30T00:42:10.146Z,95.10
2018-03-30T00:44:38.654Z,95.28
2018-03-30T00:47:07.190Z,94.21
2018-03-30T00:49:36.050Z,93.68
2018-03-30T00:52:08.250Z,93.37
2018-03-30T00:54:36.778Z,93.17
2018-03-30T00:57:24.551Z,94.42
2018-03-30T01:00:00.596Z,94.43
2018-03-30T01:02:29.249Z,95.31
2018-03-30T01:04:57.766Z,95.40
2018-03-30T01:07:26.303Z,94.94
2018-03-30T01:10:17.549Z,95.50
2018-03-30T01:12:48.017Z,94.98
2018-03-30T01:15:16.905Z,94.60
2018-03-30T01:17:50.958Z,95.80
2018-03-30T01:20:26.718Z,96.94
2018-03-30T01:23:08.061Z,96.17
2018-03-30T01:25:36.600Z,95.88
2018-03-30T01:28:24.631Z,95.60
2018-03-30T01:30:56.821Z,95.60
2018-03-30T01:33:33.438Z,95.40
2018-03-30T01:36:02.012Z,95.47
2018-03-30T01:38:48.564Z,95.92
2018-03-30T01:41:18.015Z,95.20
2018-03-30T01:43:48.552Z,95.69
2018-03-30T01:46:48.664Z,95.75
2018-03-30T01:49:20.925Z,96.21
2018-03-30T01:51:49.452Z,97.74
2018-03-30T01:54:45.850Z,97.99
2018-03-30T01:57:18.136Z,97.41
2018-03-30T01:59:48.590Z,96.87
2018-03-30T02:02:19.123Z,96.58
2018-03-30T02:04:48.674Z,96.88
2018-03-30T02:07:21.187Z,97.01
2018-03-30T02:09:49.715Z,96.72
2018-03-30T02:12:20.166Z,96.50
2018-03-30T02:14:48.689Z,96.36
2018-03-30T02:17:17.453Z,97.78
2018-03-30T02:19:49.846Z,98.08
2018-03-30T02:22:18.373Z,98.58
2018-03-30T02:24:47.818Z,98.24
2018-03-30T02:27:16.390Z,97.66
2018-03-30T02:29:48.573Z,97.50
2018-03-30T02:32:47.938Z,97.75
2018-03-30T02:35:16.483Z,96.93
2018-03-30T02:37:45.020Z,96.60
2018-03-30T02:40:40.630Z,96.45
2018-03-30T02:43:12.938Z,96.04
2018-03-30T02:45:43.362Z,96.17
2018-03-30T02:48:27.135Z,95.97
2018-03-30T02:50:55.679Z,95.81
2018-03-30T02:53:29.854Z,95.41
2018-03-30T02:55:58.379Z,95.32
2018-03-30T02:58:48.323Z,95.38
2018-03-30T03:01:48.120Z,95.41
2018-03-30T03:04:25.337Z,95.36
2018-03-30T03:06:53.866Z,94.82
2018-03-30T03:09:27.906Z,95.17
2018-03-30T03:11:56.610Z,95.81
2018-03-30T03:14:35.657Z,96.17
2018-03-30T03:17:04.216Z,96.21
2018-03-30T03:19:35.918Z,95.61
2018-03-30T03:22:04.678Z,95.64
2018-03-30T03:24:33.194Z,95.64
2018-03-30T03:27:14.800Z,96.14
2018-03-30T03:29:50.737Z,96.18
2018-03-30T03:32:19.263Z,96.07
2018-03-30T03:35:06.154Z,96.83
2018-03-30T03:37:36.574Z,96.40
2018-03-30T03:40:05.092Z,96.57
2018-03-30T03:42:38.039Z,95.82
2018-03-30T03:45:11.702Z,96.00
2018-03-30T03:47:44.727Z,96.13
2018-03-30T03:50:20.211Z,96.74
2018-03-30T03:52:52.351Z,97.63
2018-03-30T03:55:20.879Z,98.26
2018-03-30T03:58:11.650Z,98.68
2018-03-30T04:01:02.466Z,98.07
2018-03-30T04:04:11.330Z,97.49
2018-03-30T04:06:39.852Z,96.96
2018-03-30T04:09:11.777Z,95.76
2018-03-30T04:11:52.662Z,94.21
2018-03-30T04:14:21.180Z,94.36
2018-03-30T04:16:49.794Z,94.48
2018-03-30T04:19:18.322Z,94.92
2018-03-30T04:22:09.258Z,95.17
2018-03-30T04:25:10.768Z,94.66
2018-03-30T04:27:49.396Z,95.64
2018-03-30T04:30:17.946Z,95.91
2018-03-30T04:32:47.439Z,96.10
2018-03-30T04:35:23.730Z,96.09
2018-03-30T04:37:52.266Z,96.04
2018-03-30T04:40:20.859Z,96.03
2018-03-30T04:42:49.389Z,95.90
2018-03-30T04:45:25.633Z,95.17
2018-03-30T04:48:02.314Z,92.95
2018-03-30T04:50:33.945Z,93.54
2018-03-30T04:53:04.370Z,93.92
2018-03-30T04:55:33.810Z,93.98
2018-03-30T04:58:13.481Z,94.37
2018-03-30T05:00:41.963Z,94.81
2018-03-30T05:03:31.908Z,94.97
2018-03-30T05:06:08.060Z,94.73
2018-03-30T05:08:36.587Z,94.37
2018-03-30T05:11:05.363Z,95.07
2018-03-30T05:13:33.869Z,95.23
2018-03-30T05:16:25.085Z,94.87
2018-03-30T05:18:55.492Z,94.13
2018-03-30T05:21:34.433Z,92.42
2018-03-30T05:24:05.966Z,91.76
2018-03-30T05:26:34.487Z,91.32
2018-03-30T05:29:16.365Z,91.34
2018-03-30T05:31:45.159Z,91.89
2018-03-30T05:34:24.078Z,91.51
2018-03-30T05:37:00.093Z,91.68
2018-03-30T05:39:28.611Z,91.23
2018-03-30T05:41:58.291Z,91.41
2018-03-30T05:44:26.803Z,91.72
2018-03-30T05:46:59.159Z,91.69
2018-03-30T05:49:31.142Z,90.72
2018-03-30T05:52:00.586Z,90.32
2018-03-30T05:54:32.698Z,90.27
2018-03-30T05:57:01.667Z,89.85
2018-03-30T05:59:33.618Z,90.47
2018-03-30T06:02:03.034Z,90.65
2018-03-30T06:04:33.465Z,90.37
2018-03-30T06:07:02.006Z,89.94
2018-03-30T06:09:34.255Z,89.24
2018-03-30T06:12:12.334Z,90.01
2018-03-30T06:14:40.862Z,89.35
2018-03-30T06:17:32.777Z,88.83
2018-03-30T06:20:10.950Z,87.70
2018-03-30T06:22:39.476Z,87.39
2018-03-30T06:25:08.894Z,86.85
2018-03-30T06:27:44.797Z,86.08
2018-03-30T06:30:13.301Z,85.82
2018-03-30T06:32:55.098Z,85.10
2018-03-30T06:35:33.130Z,84.75
2018-03-30T06:38:01.659Z,84.89
2018-03-30T06:40:57.099Z,84.64
2018-03-30T06:43:54.011Z,84.40
2018-03-30T06:46:22.748Z,84.09
2018-03-30T06:48:58.090Z,83.72
2018-03-30T06:51:43.430Z,82.84
2018-03-30T06:54:12.254Z,81.26
2018-03-30T06:56:54.671Z,81.51
2018-03-30T06:59:27.547Z,80.80
2018-03-30T07:01:56.060Z,81.03
2018-03-30T07:04:47.786Z,80.04
2018-03-30T07:07:54.446Z,79.15
2018-03-30T07:10:29.838Z,79.03
2018-03-30T07:12:58.502Z,78.85
2018-03-30T07:15:29.485Z,78.55
2018-03-30T07:17:57.995Z,76.95
2018-03-30T07:20:34.618Z,76.42
2018-03-30T07:23:06.968Z,77.08
2018-03-30T07:25:35.518Z,76.60
2018-03-30T07:28:04.021Z,76.17
2018-03-30T07:30:35.827Z,76.34
2018-03-30T07:33:04.333Z,75.09
2018-03-30T07:35:32.849Z,74.75
2018-03-30T07:38:01.349Z,76.36
2018-03-30T07:40:33.585Z,76.93
2018-03-30T07:43:02.458Z,75.25
2018-03-30T07:45:30.993Z,75.28
2018-03-30T07:48:00.231Z,73.28
2018-03-30T07:50:28.770Z,74.64
2018-03-30T07:52:57.299Z,72.32
2018-03-30T07:55:26.739Z,72.69
2018-03-30T07:57:55.813Z,69.71
2018-03-30T08:00:24.354Z,71.58
2018-03-30T08:02:53.437Z,68.97
2018-03-30T08:05:21.972Z,68.06
2018-03-30T08:07:51.593Z,69.40
2018-03-30T08:10:20.364Z,68.10
2018-03-30T08:12:48.889Z,69.68
2018-03-30T08:15:17.403Z,67.94
2018-03-30T08:17:47.818Z,68.27
2018-03-30T08:20:16.361Z,68.34
2018-03-30T08:22:59.466Z,66.89
2018-03-30T08:25:28.530Z,65.49
2018-03-30T08:27:57.071Z,65.60
2018-03-30T08:30:26.348Z,66.88
2018-03-30T08:33:02.376Z,69.03
2018-03-30T08:35:34.393Z,69.04
2018-03-30T08:38:07.894Z,68.50
2018-03-30T08:40:46.845Z,68.54
2018-03-30T08:43:15.362Z,69.21
2018-03-30T08:46:08.419Z,69.08
2018-03-30T08:48:37.823Z,67.95
2018-03-30T08:51:08.259Z,68.76
2018-03-30T08:53:49.937Z,67.29
2018-03-30T08:56:18.860Z,68.17
2018-03-30T08:58:51.541Z,67.66
2018-03-30T09:01:20.139Z,66.97
2018-03-30T09:04:03.110Z,67.72
2018-03-30T09:06:39.266Z,68.05
2018-03-30T09:09:07.794Z,66.70
2018-03-30T09:11:38.228Z,67.18
2018-03-30T09:14:07.651Z,66.99
2018-03-30T09:16:38.875Z,67.27
2018-03-30T09:19:08.303Z,66.60
2018-03-30T09:21:36.826Z,65.03
2018-03-30T09:24:07.480Z,65.29
2018-03-30T09:26:39.570Z,61.86
2018-03-30T09:29:08.102Z,61.33
2018-03-30T09:31:37.181Z,61.62
2018-03-30T09:34:05.722Z,57.45
2018-03-30T09:36:37.190Z,59.18
2018-03-30T09:39:07.621Z,55.04
2018-03-30T09:41:37.049Z,59.31
2018-03-30T09:44:07.519Z,53.71
2018-03-30T09:46:36.392Z,60.90
2018-03-30T09:49:09.644Z,57.46
2018-03-30T09:51:38.181Z,58.66
2018-03-30T09:54:09.405Z,52.50
2018-03-30T09:56:43.641Z,52.19
2018-03-30T09:59:12.551Z,49.11
2018-03-30T10:01:42.363Z,55.31
2018-03-30T10:04:11.362Z,48.89
2018-03-30T10:07:01.289Z,46.25
2018-03-30T10:09:33.280Z,44.24
2018-03-30T10:12:06.277Z,45.21
2018-03-30T10:14:35.310Z,43.79
2018-03-30T10:17:08.209Z,42.20
2018-03-30T10:19:45.854Z,42.80
2018-03-30T10:22:14.376Z,45.55
2018-03-30T10:24:43.409Z,46.82
2018-03-30T10:27:12.367Z,48.16
2018-03-30T10:29:55.974Z,48.68
2018-03-30T10:32:25.412Z,47.28
2018-03-30T10:34:53.945Z,46.68
2018-03-30T10:37:22.475Z,46.56
2018-03-30T10:39:51.001Z,49.21
2018-03-30T10:42:20.010Z,46.01
2018-03-30T10:44:49.274Z,47.39
2018-03-30T10:47:19.705Z,47.42
2018-03-30T10:49:48.743Z,45.34
2018-03-30T10:52:27.094Z,44.52
2018-03-30T10:55:05.910Z,46.35
2018-03-30T10:57:35.368Z,47.53
2018-03-30T11:00:08.170Z,44.03
2018-03-30T11:02:36.729Z,45.28
2018-03-30T11:05:19.598Z,47.81
2018-03-30T11:07:50.716Z,46.42
2018-03-30T11:10:25.622Z,46.36
2018-03-30T11:12:57.743Z,42.72
2018-03-30T11:15:34.298Z,41.41
2018-03-30T11:18:14.669Z,42.17
2018-03-30T11:20:46.300Z,42.49
2018-03-30T11:23:39.013Z,37.83
2018-03-30T11:26:11.167Z,34.86
2018-03-30T11:28:55.938Z,34.52
2018-03-30T11:31:27.468Z,33.14
2018-03-30T11:34:00.700Z,28.98
2018-03-30T11:36:42.695Z,29.66
2018-03-30T11:39:14.364Z,30.97
2018-03-30T11:41:57.263Z,31.44
2018-03-30T11:44:28.872Z,29.89
2018-03-30T11:47:10.199Z,32.82
2018-03-30T11:49:52.461Z,35.26
2018-03-30T11:52:51.411Z,33.50
2018-03-30T11:55:34.629Z,34.68
2018-03-30T11:58:19.292Z,31.17
2018-03-30T12:00:59.364Z,31.24
2018-03-30T12:03:39.671Z,31.31
2018-03-30T12:06:36.366Z,33.73
2018-03-30T12:09:18.426Z,33.45
2018-03-30T12:11:58.786Z,32.99
2018-03-30T12:14:45.920Z,28.69
2018-03-30T12:17:36.529Z,29.47
2018-03-30T12:20:17.139Z,28.60
2018-03-30T12:22:56.055Z,28.97
2018-03-30T12:25:40.958Z,27.83
2018-03-30T12:28:22.241Z,28.50
2018-03-30T12:31:04.608Z,29.07
2018-03-30T12:33:38.969Z,31.06
2018-03-30T12:36:23.471Z,28.91
2018-03-30T12:39:05.279Z,30.21
2018-03-30T12:41:44.597Z,28.81
2018-03-30T12:44:26.083Z,28.24
2018-03-30T12:47:21.294Z,27.39
2018-03-30T12:50:02.000Z,29.18
2018-03-30T12:52:41.590Z,28.96
2018-03-30T12:55:23.988Z,29.06
2018-03-30T12:58:03.491Z,29.97
2018-03-30T13:00:43.097Z,30.89
2018-03-30T13:03:23.722Z,32.98
2018-03-30T13:06:00.950Z,31.49
2018-03-30T13:08:40.532Z,31.99
2018-03-30T13:11:30.415Z,33.85
2018-03-30T13:14:17.091Z,33.37
2018-03-30T13:16:56.530Z,33.84
2018-03-30T13:19:39.167Z,32.71
2018-03-30T13:25:04.799Z,29.62
2018-03-30T13:27:44.233Z,30.86
2018-03-30T13:30:39.096Z,31.30
2018-03-30T13:33:17.907Z,31.13
2018-03-30T13:36:09.548Z,29.77
2018-03-30T13:38:48.566Z,31.58
2018-03-30T13:41:29.746Z,32.32
2018-03-30T13:44:13.429Z,31.79
2018-03-30T13:46:48.457Z,31.70
2018-03-30T13:49:24.004Z,33.13
2018-03-30T13:52:05.595Z,32.69
2018-03-30T13:54:37.818Z,30.77
2018-03-30T13:57:15.037Z,29.39
2018-03-30T13:59:49.378Z,30.03
2018-03-30T14:02:25.652Z,29.68
2018-03-30T14:04:55.675Z,30.07
2018-03-30T14:10:25.732Z,30.43
2018-03-30T14:12:54.319Z,29.46
2018-03-30T14:18:35.127Z,28.59
2018-03-30T14:21:11.114Z,28.12
2018-03-30T14:23:41.071Z,29.13
2018-03-30T14:26:35.334Z,28.61
2018-03-30T14:29:11.257Z,28.44
2018-03-30T14:31:42.306Z,31.02
2018-03-30T14:34:18.056Z,29.57
2018-03-30T14:37:11.297Z,29.25
2018-03-30T14:39:45.589Z,26.44
2018-03-30T14:42:16.093Z,25.84
2018-03-30T14:44:49.498Z,27.43
2018-03-30T14:47:18.092Z,28.50
2018-03-30T14:49:53.695Z,28.87
2018-03-30T14:55:35.701Z,29.88
2018-03-30T15:01:12.128Z,33.55
2018-03-30T15:03:47.852Z,32.76
2018-03-30T15:06:27.967Z,30.63
2018-03-30T15:08:59.281Z,31.31
2018-03-30T15:11:39.044Z,30.98
2018-03-30T15:14:13.085Z,31.38
2018-03-30T15:16:52.348Z,30.33
2018-03-30T15:19:27.567Z,29.43
2018-03-30T15:22:02.006Z,28.62
2018-03-30T15:24:42.186Z,29.17
2018-03-30T15:30:14.756Z,33.91
2018-03-30T15:32:49.452Z,36.37
2018-03-30T15:35:22.339Z,37.63
2018-03-30T15:37:54.766Z,36.38
2018-03-30T15:40:28.384Z,33.29
2018-03-30T15:43:04.434Z,33.65
2018-03-30T15:45:47.138Z,33.29
2018-03-30T15:48:16.414Z,34.91
2018-03-30T15:50:49.084Z,34.80
2018-03-30T15:53:19.007Z,36.96
2018-03-30T15:55:53.191Z,36.45
2018-03-30T15:58:24.662Z,38.00
2018-03-30T16:01:03.995Z,38.28
2018-03-30T16:03:34.796Z,40.37
2018-03-30T16:06:10.144Z,39.47
2018-03-30T16:08:41.699Z,40.65
2018-03-30T16:14:16.700Z,44.34
2018-03-30T16:16:49.065Z,46.09
2018-03-30T16:19:25.248Z,47.76
2018-03-30T16:22:04.835Z,47.83
2018-03-30T16:24:32.786Z,47.88
2018-03-30T16:27:00.962Z,48.00
2018-03-30T16:29:29.056Z,48.73
2018-03-30T16:31:57.003Z,49.43
2018-03-30T16:34:25.178Z,50.00
2018-03-30T16:36:53.240Z,49.44
2018-03-30T16:39:23.119Z,50.11
2018-03-30T16:41:51.134Z,50.95
2018-03-30T16:44:19.107Z,51.47
2018-03-30T16:46:48.080Z,52.45
2018-03-30T16:49:16.030Z,52.42
2018-03-30T16:51:44.389Z,53.02
2018-03-30T16:54:17.425Z,54.56
2018-03-30T16:56:48.011Z,53.77
2018-03-30T16:59:18.949Z,54.76
2018-03-30T17:01:49.228Z,55.68
2018-03-30T17:04:27.733Z,56.63
2018-03-30T17:06:59.241Z,56.63
2018-03-30T17:09:31.521Z,57.29
2018-03-30T17:12:01.437Z,57.44
2018-03-30T17:14:31.925Z,57.19
2018-03-30T17:17:04.027Z,57.45
2018-03-30T17:19:36.300Z,57.30
2018-03-30T17:22:06.531Z,58.71
2018-03-30T17:24:37.419Z,57.60
2018-03-30T17:27:09.561Z,57.43
2018-03-30T17:29:40.436Z,59.48
2018-03-30T17:32:12.916Z,60.38
2018-03-30T17:34:46.931Z,60.10
2018-03-30T17:37:20.741Z,61.01
2018-03-30T17:39:52.274Z,60.95
2018-03-30T17:42:22.416Z,61.03
2018-03-30T17:44:53.753Z,61.81
2018-03-30T17:47:24.698Z,62.67
2018-03-30T17:50:03.759Z,62.90
2018-03-30T17:52:34.334Z,63.47
2018-03-30T17:55:08.306Z,63.04
2018-03-30T17:57:40.283Z,63.52
2018-03-30T18:00:10.700Z,62.52
2018-03-30T18:02:41.349Z,63.00
2018-03-30T18:05:12.869Z,64.56
2018-03-30T18:07:51.607Z,65.25
2018-03-30T18:10:19.546Z,65.84
2018-03-30T18:13:03.841Z,65.87
2018-03-30T18:15:33.036Z,64.94
2018-03-30T18:18:14.203Z,65.69
2018-03-30T18:20:45.067Z,65.97
2018-03-30T18:23:15.530Z,66.62
2018-03-30T18:25:46.635Z,67.04
2018-03-30T18:28:20.773Z,66.60
2018-03-30T18:31:04.379Z,67.18
2018-03-30T18:33:33.874Z,66.38
2018-03-30T18:36:02.502Z,67.43
2018-03-30T18:38:30.559Z,67.35
2018-03-30T18:40:58.505Z,66.74
2018-03-30T18:43:26.711Z,67.47
2018-03-30T18:46:03.332Z,68.58
2018-03-30T18:48:31.283Z,67.56
2018-03-30T18:51:03.373Z,68.93
2018-03-30T18:53:31.351Z,69.49
2018-03-30T18:55:59.825Z,68.87
2018-03-30T18:58:27.934Z,69.38
2018-03-30T19:00:56.020Z,69.78
2018-03-30T19:03:23.995Z,69.10
2018-03-30T19:05:52.876Z,71.45
2018-03-30T19:08:20.850Z,70.25
2018-03-30T19:10:48.821Z,70.42
2018-03-30T19:13:17.354Z,72.75
2018-03-30T19:15:48.914Z,73.28
2018-03-30T19:18:17.437Z,72.85
2018-03-30T19:20:50.630Z,73.01
2018-03-30T19:23:18.599Z,73.47
2018-03-30T19:26:00.469Z,73.80
2018-03-30T19:28:28.439Z,73.54
2018-03-30T19:31:04.340Z,73.56
2018-03-30T19:33:32.444Z,73.54
2018-03-30T19:36:00.396Z,75.02
2018-03-30T19:38:28.365Z,73.26
2018-03-30T19:40:57.123Z,75.05
2018-03-30T19:43:25.101Z,74.92
2018-03-30T19:45:53.049Z,76.54
2018-03-30T19:48:21.031Z,79.51
2018-03-30T19:50:51.650Z,78.40
2018-03-30T19:53:19.634Z,75.30
2018-03-30T19:55:48.498Z,75.51
2018-03-30T19:58:17.102Z,73.18
2018-03-30T20:00:45.063Z,75.31
2018-03-30T20:03:13.022Z,76.65
2018-03-30T20:05:41.073Z,76.23
2018-03-30T20:08:11.001Z,79.90
2018-03-30T20:10:40.885Z,79.30
2018-03-30T20:13:15.623Z,81.02
2018-03-30T20:15:49.323Z,81.89
2018-03-30T20:18:17.283Z,82.84
2018-03-30T20:20:49.828Z,81.33
2018-03-30T20:23:17.826Z,80.42
2018-03-30T20:25:45.741Z,83.13
2018-03-30T20:28:14.757Z,82.63
2018-03-30T20:30:42.709Z,80.88
2018-03-30T20:33:13.202Z,78.24
2018-03-30T20:35:42.068Z,77.30
2018-03-30T20:38:16.989Z,76.99
2018-03-30T20:40:44.936Z,77.03
2018-03-30T20:43:12.914Z,77.21
2018-03-30T20:45:58.102Z,77.88
2018-03-30T20:48:26.624Z,78.39
2018-03-30T20:50:55.534Z,79.06
2018-03-30T20:53:23.558Z,79.53
2018-03-30T20:56:02.953Z,80.32
2018-03-30T20:58:31.842Z,80.36
2018-03-30T21:01:04.929Z,80.54
2018-03-30T21:03:32.905Z,80.60
2018-03-30T21:06:02.057Z,80.76
2018-03-30T21:08:30.070Z,80.84
2018-03-30T21:11:02.234Z,81.84
2018-03-30T21:13:30.188Z,82.29
2018-03-30T21:15:58.157Z,82.47
2018-03-30T21:18:26.483Z,82.35
2018-03-30T21:21:09.081Z,83.07
2018-03-30T21:23:51.695Z,82.78
2018-03-30T21:26:19.630Z,83.13
2018-03-30T21:28:47.617Z,83.86
2018-03-30T21:31:15.589Z,83.99
2018-03-30T21:33:43.542Z,83.26
2018-03-30T21:36:11.543Z,83.72
2018-03-30T21:38:39.482Z,83.57
2018-03-30T21:41:08.282Z,83.50
2018-03-30T21:43:38.631Z,82.99
2018-03-30T21:46:06.696Z,81.98
2018-03-30T21:48:38.212Z,81.60
2018-03-30T21:51:18.154Z,81.39
2018-03-30T21:53:48.930Z,81.56
2018-03-30T21:56:20.375Z,81.40
2018-03-30T21:58:48.337Z,81.27
2018-03-30T22:01:16.725Z,81.05
2018-03-30T22:03:45.667Z,81.34
2018-03-30T22:06:13.649Z,81.87
2018-03-30T22:08:41.886Z,82.56
2018-03-30T22:11:13.902Z,81.69
2018-03-30T22:13:43.842Z,81.77
2018-03-30T22:16:18.233Z,81.51
2018-03-30T22:18:49.104Z,81.86
2018-03-30T22:21:19.945Z,81.59
2018-03-30T22:23:50.210Z,81.57
2018-03-30T22:26:21.740Z,81.78
2018-03-30T22:28:53.382Z,81.73
2018-03-30T22:31:23.499Z,82.00
2018-03-30T22:33:59.921Z,81.83
2018-03-30T22:36:30.334Z,82.22
2018-03-30T22:39:02.390Z,82.14
2018-03-30T22:41:33.718Z,82.05
2018-03-30T22:44:13.409Z,82.16
2018-03-30T22:46:44.549Z,82.43
2018-03-30T22:49:15.534Z,82.01
2018-03-30T22:51:48.268Z,82.05
2018-03-30T22:54:17.127Z,82.40
2018-03-30T22:56:50.394Z,83.32
2018-03-30T22:59:21.048Z,83.52
2018-03-30T23:01:51.781Z,84.15
2018-03-30T23:04:25.978Z,84.42
2018-03-30T23:06:56.874Z,84.96
2018-03-30T23:09:41.428Z,84.54
2018-03-30T23:12:17.531Z,84.16
2018-03-30T23:14:47.285Z,83.85
2018-03-30T23:17:21.619Z,84.04
2018-03-30T23:19:51.999Z,84.14
2018-03-30T23:22:32.514Z,83.74
2018-03-30T23:25:02.099Z,83.95
2018-03-30T23:27:48.392Z,83.75
2018-03-30T23:30:29.514Z,83.91
2018-03-30T23:32:58.258Z,83.21
2018-03-30T23:35:45.355Z,82.70
2018-03-30T23:38:18.252Z,82.88
2018-03-30T23:40:49.491Z,82.75
2018-03-30T23:43:25.422Z,82.44
2018-03-30T23:45:54.246Z,82.25
2018-03-30T23:48:38.955Z,82.23
2018-03-30T23:51:15.493Z,82.53
2018-03-30T23:53:47.425Z,82.68
2018-03-30T23:56:22.378Z,82.87
2018-03-30T23:58:50.976Z,82.86
